sensor_id;sensor_type;location;lat;lon;timestamp;P1;durP1;ratioP1;P2;durP2;ratioP2
11797;SDS011;5956;51.428;6.682;2023-07-29T00:01:52;3.95;;;2.95;;
11797;SDS011;5956;51.428;6.682;2023-07-29T00:04:21;3.20;;;2.88;;
11797;SDS011;5956;51.428;6.682;2023-07-29T00:06:47;3.20;;;2.90;;
11797;SDS011;5956;51.428;6.682;2023-07-29T00:09:14;3.30;;;2.88;;
11797;SDS011;5956;51.428;6.682;2023-07-29T00:11:40;4.70;;;3.70;;
11797;SDS011;5956;51.428;6.682;2023-07-29T00:14:07;3.30;;;3.00;;
11797;SDS011;5956;51.428;6.682;2023-07-29T00:16:33;2.95;;;2.60;;
11797;SDS011;5956;51.428;6.682;2023-07-29T00:19:00;3.10;;;2.80;;
11797;SDS011;5956;51.428;6.682;2023-07-29T00:21:28;4.15;;;2.85;;
11797;SDS011;5956;51.428;6.682;2023-07-29T00:23:54;2.92;;;2.60;;
11797;SDS011;5956;51.428;6.682;2023-07-29T00:26:22;2.90;;;2.67;;
11797;SDS011;5956;51.428;6.682;2023-07-29T00:28:51;3.35;;;2.97;;
11797;SDS011;5956;51.428;6.682;2023-07-29T00:31:17;2.67;;;2.42;;
11797;SDS011;5956;51.428;6.682;2023-07-29T00:33:44;3.00;;;2.78;;
11797;SDS011;5956;51.428;6.682;2023-07-29T00:36:10;3.20;;;3.00;;
11797;SDS011;5956;51.428;6.682;2023-07-29T00:38:38;3.47;;;2.85;;
11797;SDS011;5956;51.428;6.682;2023-07-29T00:41:05;7.35;;;3.80;;
11797;SDS011;5956;51.428;6.682;2023-07-29T00:43:32;5.65;;;3.47;;
11797;SDS011;5956;51.428;6.682;2023-07-29T00:45:59;4.10;;;3.08;;
11797;SDS011;5956;51.428;6.682;2023-07-29T00:48:25;3.50;;;3.20;;
11797;SDS011;5956;51.428;6.682;2023-07-29T00:50:53;3.17;;;2.88;;
11797;SDS011;5956;51.428;6.682;2023-07-29T00:53:19;3.45;;;3.15;;
11797;SDS011;5956;51.428;6.682;2023-07-29T00:55:47;3.35;;;3.15;;
11797;SDS011;5956;51.428;6.682;2023-07-29T00:58:14;4.00;;;3.15;;
11797;SDS011;5956;51.428;6.682;2023-07-29T01:00:40;4.00;;;3.08;;
11797;SDS011;5956;51.428;6.682;2023-07-29T01:03:07;7.03;;;3.33;;
11797;SDS011;5956;51.428;6.682;2023-07-29T01:05:36;5.85;;;3.30;;
11797;SDS011;5956;51.428;6.682;2023-07-29T01:08:05;2.88;;;2.78;;
11797;SDS011;5956;51.428;6.682;2023-07-29T01:10:34;2.97;;;2.72;;
11797;SDS011;5956;51.428;6.682;2023-07-29T01:13:06;3.50;;;2.95;;
11797;SDS011;5956;51.428;6.682;2023-07-29T01:15:36;3.15;;;2.95;;
11797;SDS011;5956;51.428;6.682;2023-07-29T01:18:11;4.13;;;3.10;;
11797;SDS011;5956;51.428;6.682;2023-07-29T01:20:39;3.67;;;3.35;;
11797;SDS011;5956;51.428;6.682;2023-07-29T01:23:06;3.40;;;3.10;;
11797;SDS011;5956;51.428;6.682;2023-07-29T01:25:34;4.97;;;3.40;;
11797;SDS011;5956;51.428;6.682;2023-07-29T01:28:01;5.20;;;3.47;;
11797;SDS011;5956;51.428;6.682;2023-07-29T01:30:29;5.15;;;3.40;;
11797;SDS011;5956;51.428;6.682;2023-07-29T01:32:59;5.45;;;3.45;;
11797;SDS011;5956;51.428;6.682;2023-07-29T01:35:31;4.50;;;2.97;;
11797;SDS011;5956;51.428;6.682;2023-07-29T01:37:59;4.50;;;3.63;;
11797;SDS011;5956;51.428;6.682;2023-07-29T01:40:29;3.83;;;3.15;;
11797;SDS011;5956;51.428;6.682;2023-07-29T01:42:58;6.15;;;3.60;;
11797;SDS011;5956;51.428;6.682;2023-07-29T01:45:24;6.20;;;3.03;;
11797;SDS011;5956;51.428;6.682;2023-07-29T01:47:51;4.40;;;3.13;;
11797;SDS011;5956;51.428;6.682;2023-07-29T01:50:18;5.88;;;3.15;;
11797;SDS011;5956;51.428;6.682;2023-07-29T01:52:45;3.67;;;2.83;;
11797;SDS011;5956;51.428;6.682;2023-07-29T01:55:12;4.00;;;3.17;;
11797;SDS011;5956;51.428;6.682;2023-07-29T01:57:39;3.28;;;2.90;;
11797;SDS011;5956;51.428;6.682;2023-07-29T02:00:07;4.38;;;2.65;;
11797;SDS011;5956;51.428;6.682;2023-07-29T02:02:34;2.83;;;2.20;;
11797;SDS011;5956;51.428;6.682;2023-07-29T02:05:00;4.10;;;2.90;;
11797;SDS011;5956;51.428;6.682;2023-07-29T02:07:27;3.20;;;2.90;;
11797;SDS011;5956;51.428;6.682;2023-07-29T02:09:53;4.50;;;2.92;;
11797;SDS011;5956;51.428;6.682;2023-07-29T02:12:20;3.30;;;2.50;;
11797;SDS011;5956;51.428;6.682;2023-07-29T02:14:46;6.07;;;3.03;;
11797;SDS011;5956;51.428;6.682;2023-07-29T02:17:15;3.17;;;2.97;;
11797;SDS011;5956;51.428;6.682;2023-07-29T02:19:42;5.45;;;3.00;;
11797;SDS011;5956;51.428;6.682;2023-07-29T02:22:09;3.47;;;3.17;;
11797;SDS011;5956;51.428;6.682;2023-07-29T02:24:35;3.33;;;3.10;;
11797;SDS011;5956;51.428;6.682;2023-07-29T02:27:02;3.60;;;3.30;;
11797;SDS011;5956;51.428;6.682;2023-07-29T02:29:29;3.35;;;3.05;;
11797;SDS011;5956;51.428;6.682;2023-07-29T02:31:58;3.83;;;3.45;;
11797;SDS011;5956;51.428;6.682;2023-07-29T02:34:26;6.53;;;3.35;;
11797;SDS011;5956;51.428;6.682;2023-07-29T02:36:52;5.32;;;3.00;;
11797;SDS011;5956;51.428;6.682;2023-07-29T02:39:19;3.17;;;2.97;;
11797;SDS011;5956;51.428;6.682;2023-07-29T02:41:45;4.28;;;3.08;;
11797;SDS011;5956;51.428;6.682;2023-07-29T02:44:12;5.55;;;2.85;;
11797;SDS011;5956;51.428;6.682;2023-07-29T02:46:38;4.32;;;2.88;;
11797;SDS011;5956;51.428;6.682;2023-07-29T02:49:05;3.10;;;2.90;;
11797;SDS011;5956;51.428;6.682;2023-07-29T02:51:33;3.05;;;2.53;;
11797;SDS011;5956;51.428;6.682;2023-07-29T02:53:59;3.42;;;2.42;;
11797;SDS011;5956;51.428;6.682;2023-07-29T02:56:26;3.75;;;2.60;;
11797;SDS011;5956;51.428;6.682;2023-07-29T02:58:52;2.53;;;2.40;;
11797;SDS011;5956;51.428;6.682;2023-07-29T03:01:19;2.83;;;2.67;;
11797;SDS011;5956;51.428;6.682;2023-07-29T03:03:45;2.83;;;2.60;;
11797;SDS011;5956;51.428;6.682;2023-07-29T03:06:12;3.67;;;2.42;;
11797;SDS011;5956;51.428;6.682;2023-07-29T03:08:40;4.70;;;2.58;;
11797;SDS011;5956;51.428;6.682;2023-07-29T03:11:07;6.22;;;2.83;;
11797;SDS011;5956;51.428;6.682;2023-07-29T03:13:34;3.67;;;2.40;;
11797;SDS011;5956;51.428;6.682;2023-07-29T03:16:04;3.08;;;2.80;;
11797;SDS011;5956;51.428;6.682;2023-07-29T03:18:31;5.15;;;2.97;;
11797;SDS011;5956;51.428;6.682;2023-07-29T03:20:57;4.40;;;2.42;;
11797;SDS011;5956;51.428;6.682;2023-07-29T03:23:24;3.80;;;2.85;;
11797;SDS011;5956;51.428;6.682;2023-07-29T03:25:51;4.20;;;3.13;;
11797;SDS011;5956;51.428;6.682;2023-07-29T03:28:21;4.13;;;2.85;;
11797;SDS011;5956;51.428;6.682;2023-07-29T03:30:48;2.92;;;2.72;;
11797;SDS011;5956;51.428;6.682;2023-07-29T03:33:14;3.08;;;2.80;;
11797;SDS011;5956;51.428;6.682;2023-07-29T03:35:41;2.90;;;2.70;;
11797;SDS011;5956;51.428;6.682;2023-07-29T03:38:09;3.05;;;2.85;;
11797;SDS011;5956;51.428;6.682;2023-07-29T03:40:36;4.13;;;3.03;;
11797;SDS011;5956;51.428;6.682;2023-07-29T03:43:04;2.95;;;2.80;;
11797;SDS011;5956;51.428;6.682;2023-07-29T03:45:30;3.22;;;2.92;;
11797;SDS011;5956;51.428;6.682;2023-07-29T03:47:57;4.03;;;3.00;;
11797;SDS011;5956;51.428;6.682;2023-07-29T03:50:24;4.18;;;2.55;;
11797;SDS011;5956;51.428;6.682;2023-07-29T03:52:50;2.88;;;2.67;;
11797;SDS011;5956;51.428;6.682;2023-07-29T03:55:16;3.95;;;2.90;;
11797;SDS011;5956;51.428;6.682;2023-07-29T03:57:43;2.97;;;2.78;;
11797;SDS011;5956;51.428;6.682;2023-07-29T04:00:11;3.10;;;2.80;;
11797;SDS011;5956;51.428;6.682;2023-07-29T04:02:38;4.65;;;2.75;;
11797;SDS011;5956;51.428;6.682;2023-07-29T04:05:05;2.83;;;2.63;;
11797;SDS011;5956;51.428;6.682;2023-07-29T04:07:33;3.38;;;2.92;;
11797;SDS011;5956;51.428;6.682;2023-07-29T04:10:00;3.28;;;2.90;;
11797;SDS011;5956;51.428;6.682;2023-07-29T04:12:27;3.65;;;2.55;;
11797;SDS011;5956;51.428;6.682;2023-07-29T04:14:53;4.93;;;2.65;;
11797;SDS011;5956;51.428;6.682;2023-07-29T04:17:21;3.00;;;2.80;;
11797;SDS011;5956;51.428;6.682;2023-07-29T04:19:48;4.72;;;2.90;;
11797;SDS011;5956;51.428;6.682;2023-07-29T04:22:15;3.65;;;3.20;;
11797;SDS011;5956;51.428;6.682;2023-07-29T04:24:42;4.00;;;3.70;;
11797;SDS011;5956;51.428;6.682;2023-07-29T04:27:08;3.90;;;3.70;;
11797;SDS011;5956;51.428;6.682;2023-07-29T04:29:35;3.42;;;3.22;;
11797;SDS011;5956;51.428;6.682;2023-07-29T04:32:02;4.70;;;3.67;;
11797;SDS011;5956;51.428;6.682;2023-07-29T04:34:30;4.13;;;3.75;;
11797;SDS011;5956;51.428;6.682;2023-07-29T04:36:56;4.38;;;4.07;;
11797;SDS011;5956;51.428;6.682;2023-07-29T04:39:23;3.95;;;3.75;;
11797;SDS011;5956;51.428;6.682;2023-07-29T04:41:49;5.18;;;4.80;;
11797;SDS011;5956;51.428;6.682;2023-07-29T04:44:16;5.68;;;4.32;;
11797;SDS011;5956;51.428;6.682;2023-07-29T04:46:42;5.43;;;4.60;;
11797;SDS011;5956;51.428;6.682;2023-07-29T04:49:09;4.90;;;4.50;;
11797;SDS011;5956;51.428;6.682;2023-07-29T04:51:37;5.40;;;4.70;;
11797;SDS011;5956;51.428;6.682;2023-07-29T04:54:03;7.43;;;6.78;;
11797;SDS011;5956;51.428;6.682;2023-07-29T04:56:30;8.20;;;7.50;;
11797;SDS011;5956;51.428;6.682;2023-07-29T04:58:57;5.75;;;5.03;;
11797;SDS011;5956;51.428;6.682;2023-07-29T05:01:23;6.13;;;4.53;;
11797;SDS011;5956;51.428;6.682;2023-07-29T05:03:50;5.30;;;4.80;;
11797;SDS011;5956;51.428;6.682;2023-07-29T05:06:17;7.60;;;6.88;;
11797;SDS011;5956;51.428;6.682;2023-07-29T05:08:44;12.35;;;11.20;;
11797;SDS011;5956;51.428;6.682;2023-07-29T05:11:11;5.78;;;5.28;;
11797;SDS011;5956;51.428;6.682;2023-07-29T05:13:37;5.95;;;5.45;;
11797;SDS011;5956;51.428;6.682;2023-07-29T05:16:04;4.47;;;4.22;;
11797;SDS011;5956;51.428;6.682;2023-07-29T05:18:30;4.40;;;4.10;;
11797;SDS011;5956;51.428;6.682;2023-07-29T05:20:57;5.32;;;4.82;;
11797;SDS011;5956;51.428;6.682;2023-07-29T05:23:24;5.05;;;4.50;;
11797;SDS011;5956;51.428;6.682;2023-07-29T05:25:51;5.20;;;4.80;;
11797;SDS011;5956;51.428;6.682;2023-07-29T05:28:18;5.13;;;4.63;;
11797;SDS011;5956;51.428;6.682;2023-07-29T05:30:44;7.07;;;4.28;;
11797;SDS011;5956;51.428;6.682;2023-07-29T05:33:11;6.47;;;3.75;;
11797;SDS011;5956;51.428;6.682;2023-07-29T05:35:37;4.20;;;3.60;;
11797;SDS011;5956;51.428;6.682;2023-07-29T05:38:04;5.07;;;3.63;;
11797;SDS011;5956;51.428;6.682;2023-07-29T05:40:31;9.05;;;5.65;;
11797;SDS011;5956;51.428;6.682;2023-07-29T05:42:59;5.00;;;4.30;;
11797;SDS011;5956;51.428;6.682;2023-07-29T05:45:26;3.53;;;3.33;;
11797;SDS011;5956;51.428;6.682;2023-07-29T05:47:52;3.90;;;3.33;;
11797;SDS011;5956;51.428;6.682;2023-07-29T05:50:19;4.47;;;3.40;;
11797;SDS011;5956;51.428;6.682;2023-07-29T05:52:45;4.05;;;3.38;;
11797;SDS011;5956;51.428;6.682;2023-07-29T05:55:12;3.70;;;3.35;;
11797;SDS011;5956;51.428;6.682;2023-07-29T05:57:38;3.03;;;2.83;;
11797;SDS011;5956;51.428;6.682;2023-07-29T06:00:07;4.13;;;3.10;;
11797;SDS011;5956;51.428;6.682;2023-07-29T06:02:35;3.58;;;3.28;;
11797;SDS011;5956;51.428;6.682;2023-07-29T06:05:01;3.13;;;2.92;;
11797;SDS011;5956;51.428;6.682;2023-07-29T06:07:29;2.88;;;2.67;;
11797;SDS011;5956;51.428;6.682;2023-07-29T06:09:57;5.18;;;4.13;;
11797;SDS011;5956;51.428;6.682;2023-07-29T06:12:23;5.28;;;4.38;;
11797;SDS011;5956;51.428;6.682;2023-07-29T06:14:50;5.13;;;3.30;;
11797;SDS011;5956;51.428;6.682;2023-07-29T06:17:17;3.78;;;2.83;;
11797;SDS011;5956;51.428;6.682;2023-07-29T06:19:44;3.28;;;3.08;;
11797;SDS011;5956;51.428;6.682;2023-07-29T06:22:10;3.13;;;2.92;;
11797;SDS011;5956;51.428;6.682;2023-07-29T06:24:37;2.92;;;2.72;;
11797;SDS011;5956;51.428;6.682;2023-07-29T06:27:04;3.28;;;2.70;;
11797;SDS011;5956;51.428;6.682;2023-07-29T06:29:30;2.60;;;2.50;;
11797;SDS011;5956;51.428;6.682;2023-07-29T06:31:58;2.97;;;2.78;;
11797;SDS011;5956;51.428;6.682;2023-07-29T06:34:25;2.65;;;2.45;;
11797;SDS011;5956;51.428;6.682;2023-07-29T06:36:52;2.85;;;2.53;;
11797;SDS011;5956;51.428;6.682;2023-07-29T06:39:18;2.58;;;2.35;;
11797;SDS011;5956;51.428;6.682;2023-07-29T06:41:45;7.03;;;5.78;;
11797;SDS011;5956;51.428;6.682;2023-07-29T06:44:11;4.60;;;4.20;;
11797;SDS011;5956;51.428;6.682;2023-07-29T06:46:38;3.30;;;2.45;;
11797;SDS011;5956;51.428;6.682;2023-07-29T06:49:04;3.20;;;2.42;;
11797;SDS011;5956;51.428;6.682;2023-07-29T06:51:32;4.55;;;2.28;;
11797;SDS011;5956;51.428;6.682;2023-07-29T06:54:00;2.10;;;2.00;;
11797;SDS011;5956;51.428;6.682;2023-07-29T06:56:26;2.85;;;1.98;;
11797;SDS011;5956;51.428;6.682;2023-07-29T06:58:53;2.00;;;1.90;;
11797;SDS011;5956;51.428;6.682;2023-07-29T07:01:19;5.28;;;4.20;;
11797;SDS011;5956;51.428;6.682;2023-07-29T07:03:46;3.97;;;3.63;;
11797;SDS011;5956;51.428;6.682;2023-07-29T07:06:12;2.47;;;2.35;;
11797;SDS011;5956;51.428;6.682;2023-07-29T07:08:40;1.95;;;1.80;;
11797;SDS011;5956;51.428;6.682;2023-07-29T07:11:08;1.88;;;1.77;;
11797;SDS011;5956;51.428;6.682;2023-07-29T07:13:34;1.75;;;1.65;;
11797;SDS011;5956;51.428;6.682;2023-07-29T07:16:01;1.92;;;1.83;;
11797;SDS011;5956;51.428;6.682;2023-07-29T07:18:28;1.83;;;1.73;;
11797;SDS011;5956;51.428;6.682;2023-07-29T07:20:54;2.45;;;1.75;;
11797;SDS011;5956;51.428;6.682;2023-07-29T07:23:20;1.90;;;1.58;;
11797;SDS011;5956;51.428;6.682;2023-07-29T07:25:48;3.78;;;2.05;;
11797;SDS011;5956;51.428;6.682;2023-07-29T07:28:15;2.80;;;1.70;;
11797;SDS011;5956;51.428;6.682;2023-07-29T07:30:41;1.75;;;1.60;;
11797;SDS011;5956;51.428;6.682;2023-07-29T07:33:08;3.72;;;1.75;;
11797;SDS011;5956;51.428;6.682;2023-07-29T07:35:34;1.63;;;1.52;;
11797;SDS011;5956;51.428;6.682;2023-07-29T07:38:01;2.80;;;1.60;;
11797;SDS011;5956;51.428;6.682;2023-07-29T07:40:29;3.80;;;1.98;;
11797;SDS011;5956;51.428;6.682;2023-07-29T07:42:56;1.17;;;1.10;;
11797;SDS011;5956;51.428;6.682;2023-07-29T07:45:23;1.50;;;1.40;;
11797;SDS011;5956;51.428;6.682;2023-07-29T07:47:51;1.50;;;1.45;;
11797;SDS011;5956;51.428;6.682;2023-07-29T07:50:17;2.63;;;1.30;;
11797;SDS011;5956;51.428;6.682;2023-07-29T07:52:44;1.80;;;1.70;;
11797;SDS011;5956;51.428;6.682;2023-07-29T07:55:10;1.48;;;1.38;;
11797;SDS011;5956;51.428;6.682;2023-07-29T07:57:37;2.28;;;1.50;;
11797;SDS011;5956;51.428;6.682;2023-07-29T08:00:05;3.70;;;1.17;;
11797;SDS011;5956;51.428;6.682;2023-07-29T08:02:32;1.67;;;1.58;;
11797;SDS011;5956;51.428;6.682;2023-07-29T08:04:58;2.70;;;2.50;;
11797;SDS011;5956;51.428;6.682;2023-07-29T08:07:25;2.47;;;2.28;;
11797;SDS011;5956;51.428;6.682;2023-07-29T08:09:51;1.60;;;1.50;;
11797;SDS011;5956;51.428;6.682;2023-07-29T08:12:18;1.60;;;1.30;;
11797;SDS011;5956;51.428;6.682;2023-07-29T08:14:44;2.60;;;2.22;;
11797;SDS011;5956;51.428;6.682;2023-07-29T08:17:12;4.93;;;4.53;;
11797;SDS011;5956;51.428;6.682;2023-07-29T08:19:39;1.40;;;1.30;;
11797;SDS011;5956;51.428;6.682;2023-07-29T08:22:05;1.92;;;1.38;;
11797;SDS011;5956;51.428;6.682;2023-07-29T08:24:32;1.20;;;1.20;;
11797;SDS011;5956;51.428;6.682;2023-07-29T08:26:59;1.33;;;1.33;;
11797;SDS011;5956;51.428;6.682;2023-07-29T08:29:26;2.30;;;1.33;;
11797;SDS011;5956;51.428;6.682;2023-07-29T08:31:52;1.30;;;1.20;;
11797;SDS011;5956;51.428;6.682;2023-07-29T08:34:21;5.32;;;4.80;;
11797;SDS011;5956;51.428;6.682;2023-07-29T08:36:48;1.10;;;1.10;;
11797;SDS011;5956;51.428;6.682;2023-07-29T08:39:14;1.23;;;1.20;;
11797;SDS011;5956;51.428;6.682;2023-07-29T08:41:43;2.58;;;1.30;;
11797;SDS011;5956;51.428;6.682;2023-07-29T08:44:12;1.10;;;1.10;;
11797;SDS011;5956;51.428;6.682;2023-07-29T08:46:41;1.30;;;1.10;;
11797;SDS011;5956;51.428;6.682;2023-07-29T08:49:07;1.05;;;1.05;;
11797;SDS011;5956;51.428;6.682;2023-07-29T08:51:35;1.33;;;1.10;;
11797;SDS011;5956;51.428;6.682;2023-07-29T08:54:02;1.23;;;1.23;;
11797;SDS011;5956;51.428;6.682;2023-07-29T08:56:29;1.05;;;0.95;;
11797;SDS011;5956;51.428;6.682;2023-07-29T08:58:56;1.10;;;1.10;;
11797;SDS011;5956;51.428;6.682;2023-07-29T09:01:25;1.10;;;1.10;;
11797;SDS011;5956;51.428;6.682;2023-07-29T09:03:52;1.20;;;1.20;;
11797;SDS011;5956;51.428;6.682;2023-07-29T09:06:18;1.23;;;1.20;;
11797;SDS011;5956;51.428;6.682;2023-07-29T09:08:47;1.95;;;1.30;;
11797;SDS011;5956;51.428;6.682;2023-07-29T09:11:14;1.10;;;1.10;;
11797;SDS011;5956;51.428;6.682;2023-07-29T09:13:42;1.20;;;1.10;;
11797;SDS011;5956;51.428;6.682;2023-07-29T09:16:08;1.20;;;1.20;;
11797;SDS011;5956;51.428;6.682;2023-07-29T09:18:35;1.48;;;1.48;;
11797;SDS011;5956;51.428;6.682;2023-07-29T09:21:01;1.17;;;1.17;;
11797;SDS011;5956;51.428;6.682;2023-07-29T09:23:28;1.10;;;1.05;;
11797;SDS011;5956;51.428;6.682;2023-07-29T09:26:01;1.25;;;1.17;;
11797;SDS011;5956;51.428;6.682;2023-07-29T09:28:28;1.40;;;1.30;;
11797;SDS011;5956;51.428;6.682;2023-07-29T09:30:58;1.65;;;1.40;;
11797;SDS011;5956;51.428;6.682;2023-07-29T09:33:25;1.30;;;1.20;;
11797;SDS011;5956;51.428;6.682;2023-07-29T09:35:51;1.73;;;1.63;;
11797;SDS011;5956;51.428;6.682;2023-07-29T09:38:18;1.55;;;1.50;;
11797;SDS011;5956;51.428;6.682;2023-07-29T09:40:54;1.40;;;1.30;;
11797;SDS011;5956;51.428;6.682;2023-07-29T09:43:24;1.52;;;1.50;;
11797;SDS011;5956;51.428;6.682;2023-07-29T09:45:51;1.50;;;1.25;;
11797;SDS011;5956;51.428;6.682;2023-07-29T09:48:19;2.97;;;1.40;;
11797;SDS011;5956;51.428;6.682;2023-07-29T09:50:47;2.13;;;1.30;;
11797;SDS011;5956;51.428;6.682;2023-07-29T09:53:13;1.45;;;1.35;;
11797;SDS011;5956;51.428;6.682;2023-07-29T09:55:40;1.90;;;1.50;;
11797;SDS011;5956;51.428;6.682;2023-07-29T09:58:12;1.42;;;1.30;;
11797;SDS011;5956;51.428;6.682;2023-07-29T10:00:39;1.30;;;1.30;;
11797;SDS011;5956;51.428;6.682;2023-07-29T10:03:06;1.88;;;1.33;;
11797;SDS011;5956;51.428;6.682;2023-07-29T10:05:33;1.20;;;1.10;;
11797;SDS011;5956;51.428;6.682;2023-07-29T10:08:00;2.50;;;1.30;;
11797;SDS011;5956;51.428;6.682;2023-07-29T10:10:27;1.40;;;1.35;;
11797;SDS011;5956;51.428;6.682;2023-07-29T10:12:54;1.48;;;1.38;;
11797;SDS011;5956;51.428;6.682;2023-07-29T10:15:22;1.35;;;1.20;;
11797;SDS011;5956;51.428;6.682;2023-07-29T10:17:50;1.38;;;1.35;;
11797;SDS011;5956;51.428;6.682;2023-07-29T10:20:17;1.30;;;1.27;;
11797;SDS011;5956;51.428;6.682;2023-07-29T10:22:45;1.45;;;1.35;;
11797;SDS011;5956;51.428;6.682;2023-07-29T10:25:13;1.10;;;1.10;;
11797;SDS011;5956;51.428;6.682;2023-07-29T10:27:42;1.10;;;1.10;;
11797;SDS011;5956;51.428;6.682;2023-07-29T10:30:10;2.35;;;1.52;;
11797;SDS011;5956;51.428;6.682;2023-07-29T10:32:37;1.40;;;1.40;;
11797;SDS011;5956;51.428;6.682;2023-07-29T10:35:06;1.15;;;1.15;;
11797;SDS011;5956;51.428;6.682;2023-07-29T10:37:32;1.60;;;1.27;;
11797;SDS011;5956;51.428;6.682;2023-07-29T10:39:59;2.47;;;1.25;;
11797;SDS011;5956;51.428;6.682;2023-07-29T10:42:25;1.27;;;1.27;;
11797;SDS011;5956;51.428;6.682;2023-07-29T10:44:52;1.73;;;1.13;;
11797;SDS011;5956;51.428;6.682;2023-07-29T10:47:19;1.50;;;1.40;;
11797;SDS011;5956;51.428;6.682;2023-07-29T10:49:47;1.85;;;1.35;;
11797;SDS011;5956;51.428;6.682;2023-07-29T10:52:15;1.10;;;1.10;;
11797;SDS011;5956;51.428;6.682;2023-07-29T10:54:42;1.25;;;1.25;;
11797;SDS011;5956;51.428;6.682;2023-07-29T10:57:12;1.08;;;1.08;;
11797;SDS011;5956;51.428;6.682;2023-07-29T10:59:39;1.60;;;1.50;;
11797;SDS011;5956;51.428;6.682;2023-07-29T11:02:11;1.50;;;1.40;;
11797;SDS011;5956;51.428;6.682;2023-07-29T11:04:45;1.23;;;1.17;;
11797;SDS011;5956;51.428;6.682;2023-07-29T11:07:20;1.50;;;1.40;;
11797;SDS011;5956;51.428;6.682;2023-07-29T11:09:58;1.70;;;1.60;;
11797;SDS011;5956;51.428;6.682;2023-07-29T11:12:35;1.48;;;1.38;;
11797;SDS011;5956;51.428;6.682;2023-07-29T11:15:02;2.28;;;1.80;;
11797;SDS011;5956;51.428;6.682;2023-07-29T11:17:30;3.78;;;2.80;;
11797;SDS011;5956;51.428;6.682;2023-07-29T11:19:57;1.63;;;1.52;;
11797;SDS011;5956;51.428;6.682;2023-07-29T11:22:27;1.58;;;1.48;;
11797;SDS011;5956;51.428;6.682;2023-07-29T11:24:54;1.63;;;1.52;;
11797;SDS011;5956;51.428;6.682;2023-07-29T11:27:20;2.40;;;1.50;;
11797;SDS011;5956;51.428;6.682;2023-07-29T11:29:47;1.33;;;1.33;;
11797;SDS011;5956;51.428;6.682;2023-07-29T11:32:14;1.50;;;1.40;;
11797;SDS011;5956;51.428;6.682;2023-07-29T11:34:40;1.70;;;1.60;;
11797;SDS011;5956;51.428;6.682;2023-07-29T11:37:08;2.78;;;1.67;;
11797;SDS011;5956;51.428;6.682;2023-07-29T11:39:40;2.35;;;1.58;;
11797;SDS011;5956;51.428;6.682;2023-07-29T11:42:07;1.92;;;1.60;;
11797;SDS011;5956;51.428;6.682;2023-07-29T11:44:36;1.60;;;1.50;;
11797;SDS011;5956;51.428;6.682;2023-07-29T11:47:05;1.50;;;1.40;;
11797;SDS011;5956;51.428;6.682;2023-07-29T11:49:32;1.52;;;1.50;;
11797;SDS011;5956;51.428;6.682;2023-07-29T11:51:59;1.52;;;1.42;;
11797;SDS011;5956;51.428;6.682;2023-07-29T11:54:26;2.30;;;1.58;;
11797;SDS011;5956;51.428;6.682;2023-07-29T11:56:53;3.25;;;2.58;;
11797;SDS011;5956;51.428;6.682;2023-07-29T11:59:21;1.52;;;1.42;;
11797;SDS011;5956;51.428;6.682;2023-07-29T12:01:47;1.48;;;1.38;;
11797;SDS011;5956;51.428;6.682;2023-07-29T12:04:14;2.28;;;1.27;;
11797;SDS011;5956;51.428;6.682;2023-07-29T12:06:40;1.90;;;1.80;;
11797;SDS011;5956;51.428;6.682;2023-07-29T12:09:07;3.47;;;1.65;;
11797;SDS011;5956;51.428;6.682;2023-07-29T12:11:34;1.75;;;1.65;;
11797;SDS011;5956;51.428;6.682;2023-07-29T12:14:02;1.63;;;1.45;;
11797;SDS011;5956;51.428;6.682;2023-07-29T12:16:28;2.80;;;1.40;;
11797;SDS011;5956;51.428;6.682;2023-07-29T12:19:00;1.45;;;1.38;;
11797;SDS011;5956;51.428;6.682;2023-07-29T12:21:26;1.80;;;1.70;;
11797;SDS011;5956;51.428;6.682;2023-07-29T12:23:53;2.13;;;1.30;;
11797;SDS011;5956;51.428;6.682;2023-07-29T12:26:19;3.97;;;3.67;;
11797;SDS011;5956;51.428;6.682;2023-07-29T12:28:46;2.22;;;2.03;;
11797;SDS011;5956;51.428;6.682;2023-07-29T12:31:14;1.60;;;1.50;;
11797;SDS011;5956;51.428;6.682;2023-07-29T12:33:40;1.80;;;1.70;;
11797;SDS011;5956;51.428;6.682;2023-07-29T12:36:08;1.70;;;1.60;;
11797;SDS011;5956;51.428;6.682;2023-07-29T12:38:35;2.67;;;1.70;;
11797;SDS011;5956;51.428;6.682;2023-07-29T12:41:02;1.42;;;1.42;;
11797;SDS011;5956;51.428;6.682;2023-07-29T12:43:28;1.50;;;1.40;;
11797;SDS011;5956;51.428;6.682;2023-07-29T12:45:56;2.60;;;1.73;;
11797;SDS011;5956;51.428;6.682;2023-07-29T12:48:24;2.35;;;1.60;;
11797;SDS011;5956;51.428;6.682;2023-07-29T12:50:50;1.95;;;1.50;;
11797;SDS011;5956;51.428;6.682;2023-07-29T12:53:17;1.92;;;1.67;;
11797;SDS011;5956;51.428;6.682;2023-07-29T12:55:44;1.63;;;1.52;;
11797;SDS011;5956;51.428;6.682;2023-07-29T12:58:10;1.80;;;1.70;;
11797;SDS011;5956;51.428;6.682;2023-07-29T13:00:37;1.88;;;1.77;;
11797;SDS011;5956;51.428;6.682;2023-07-29T13:03:03;1.70;;;1.60;;
11797;SDS011;5956;51.428;6.682;2023-07-29T13:05:32;2.08;;;1.85;;
11797;SDS011;5956;51.428;6.682;2023-07-29T13:07:59;2.00;;;1.90;;
11797;SDS011;5956;51.428;6.682;2023-07-29T13:10:26;1.85;;;1.75;;
11797;SDS011;5956;51.428;6.682;2023-07-29T13:12:52;2.40;;;1.77;;
11797;SDS011;5956;51.428;6.682;2023-07-29T13:15:19;1.75;;;1.65;;
11797;SDS011;5956;51.428;6.682;2023-07-29T13:17:45;1.90;;;1.80;;
11797;SDS011;5956;51.428;6.682;2023-07-29T13:20:11;2.10;;;2.00;;
11797;SDS011;5956;51.428;6.682;2023-07-29T13:22:39;2.00;;;1.90;;
11797;SDS011;5956;51.428;6.682;2023-07-29T13:25:06;1.73;;;1.63;;
11797;SDS011;5956;51.428;6.682;2023-07-29T13:27:33;1.85;;;1.67;;
11797;SDS011;5956;51.428;6.682;2023-07-29T13:29:59;1.70;;;1.60;;
11797;SDS011;5956;51.428;6.682;2023-07-29T13:32:25;1.75;;;1.65;;
11797;SDS011;5956;51.428;6.682;2023-07-29T13:34:52;1.73;;;1.70;;
11797;SDS011;5956;51.428;6.682;2023-07-29T13:37:18;2.17;;;1.98;;
11797;SDS011;5956;51.428;6.682;2023-07-29T13:39:46;2.33;;;1.80;;
11797;SDS011;5956;51.428;6.682;2023-07-29T13:42:13;2.80;;;1.85;;
11797;SDS011;5956;51.428;6.682;2023-07-29T13:44:39;3.10;;;1.90;;
11797;SDS011;5956;51.428;6.682;2023-07-29T13:47:06;4.10;;;2.30;;
11797;SDS011;5956;51.428;6.682;2023-07-29T13:49:32;2.58;;;2.38;;
11797;SDS011;5956;51.428;6.682;2023-07-29T13:52:00;3.92;;;2.35;;
11797;SDS011;5956;51.428;6.682;2023-07-29T13:54:26;2.95;;;2.05;;
11797;SDS011;5956;51.428;6.682;2023-07-29T13:56:55;3.28;;;2.20;;
11797;SDS011;5956;51.428;6.682;2023-07-29T13:59:22;4.47;;;2.30;;
11797;SDS011;5956;51.428;6.682;2023-07-29T14:01:48;2.75;;;2.13;;
11797;SDS011;5956;51.428;6.682;2023-07-29T14:04:15;2.55;;;2.38;;
11797;SDS011;5956;51.428;6.682;2023-07-29T14:06:41;8.75;;;2.83;;
11797;SDS011;5956;51.428;6.682;2023-07-29T14:09:08;3.15;;;2.50;;
11797;SDS011;5956;51.428;6.682;2023-07-29T14:11:34;2.65;;;2.45;;
11797;SDS011;5956;51.428;6.682;2023-07-29T14:14:02;3.17;;;2.88;;
11797;SDS011;5956;51.428;6.682;2023-07-29T14:16:29;4.40;;;2.20;;
11797;SDS011;5956;51.428;6.682;2023-07-29T14:18:55;2.30;;;2.10;;
11797;SDS011;5956;51.428;6.682;2023-07-29T14:21:22;2.10;;;2.00;;
11797;SDS011;5956;51.428;6.682;2023-07-29T14:23:48;2.58;;;1.80;;
11797;SDS011;5956;51.428;6.682;2023-07-29T14:26:15;21.88;;;4.90;;
11797;SDS011;5956;51.428;6.682;2023-07-29T14:28:41;2.42;;;2.30;;
11797;SDS011;5956;51.428;6.682;2023-07-29T14:31:09;3.03;;;2.17;;
11797;SDS011;5956;51.428;6.682;2023-07-29T14:33:36;2.22;;;2.03;;
11797;SDS011;5956;51.428;6.682;2023-07-29T14:36:02;2.50;;;2.30;;
11797;SDS011;5956;51.428;6.682;2023-07-29T14:38:29;2.33;;;2.10;;
11797;SDS011;5956;51.428;6.682;2023-07-29T14:40:56;4.18;;;2.70;;
11797;SDS011;5956;51.428;6.682;2023-07-29T14:43:22;2.53;;;2.33;;
11797;SDS011;5956;51.428;6.682;2023-07-29T14:45:49;11.00;;;3.42;;
11797;SDS011;5956;51.428;6.682;2023-07-29T14:48:17;7.47;;;3.42;;
11797;SDS011;5956;51.428;6.682;2023-07-29T14:50:43;2.97;;;2.55;;
11797;SDS011;5956;51.428;6.682;2023-07-29T14:53:10;3.30;;;2.92;;
11797;SDS011;5956;51.428;6.682;2023-07-29T14:55:36;3.80;;;3.00;;
11797;SDS011;5956;51.428;6.682;2023-07-29T14:58:03;2.83;;;2.63;;
11797;SDS011;5956;51.428;6.682;2023-07-29T15:00:30;3.58;;;3.28;;